createdAt,value
2017-07-27T00:00:12.259Z,49
2017-07-27T00:01:14.059Z,48.7
2017-07-27T00:02:16.185Z,49
2017-07-27T00:03:17.985Z,48.7
2017-07-27T00:04:19.787Z,48.8
2017-07-27T00:05:21.579Z,48.9
2017-07-27T00:06:23.711Z,48.8
2017-07-27T00:07:25.837Z,48.7
2017-07-27T00:08:27.635Z,49
2017-07-27T00:09:29.438Z,48.7
2017-07-27T00:10:31.565Z,49
2017-07-27T00:11:33.344Z,49
2017-07-27T00:12:34.788Z,48.9
2017-07-27T00:13:36.564Z,49
2017-07-27T00:14:38.360Z,48.8
2017-07-27T00:15:40.494Z,49
2017-07-27T00:16:42.275Z,48.8
2017-07-27T00:17:44.421Z,49
2017-07-27T00:18:46.553Z,48.7
2017-07-27T00:19:48.685Z,49
2017-07-27T00:20:50.816Z,49
2017-07-27T00:21:52.611Z,48.8
2017-07-27T00:22:53.413Z,49
2017-07-27T00:23:55.544Z,48.7
2017-07-27T00:24:57.352Z,48.8
2017-07-27T00:25:59.129Z,49
2017-07-27T00:27:01.257Z,48.7
2017-07-27T00:28:03.438Z,48.7
2017-07-27T00:29:05.568Z,49
2017-07-27T00:30:07.726Z,48.7
2017-07-27T00:31:09.519Z,48.8
2017-07-27T00:32:11.319Z,49
2017-07-27T00:33:13.448Z,48.7
2017-07-27T00:34:15.580Z,48.9
2017-07-27T00:35:17.713Z,49
2017-07-27T00:36:19.512Z,49
2017-07-27T00:37:21.311Z,49.1
2017-07-27T00:38:23.440Z,49
2017-07-27T00:39:25.236Z,49.1
2017-07-27T00:40:26.697Z,48.9
2017-07-27T00:41:28.478Z,48.8
2017-07-27T00:42:30.600Z,49
2017-07-27T00:43:32.064Z,48.7
2017-07-27T00:44:34.195Z,49
2017-07-27T00:45:35.990Z,49
2017-07-27T00:46:37.766Z,49
2017-07-27T00:47:39.232Z,49.1
2017-07-27T00:48:40.701Z,49
2017-07-27T00:49:42.857Z,49
2017-07-27T00:50:44.654Z,49.1
2017-07-27T00:51:46.451Z,48.9
2017-07-27T00:52:48.580Z,49.1
2017-07-27T00:53:50.380Z,49.2
2017-07-27T00:54:52.510Z,49.1
2017-07-27T00:55:53.951Z,49
2017-07-27T00:56:55.730Z,49
2017-07-27T00:57:57.505Z,49
2017-07-27T00:58:59.635Z,49
2017-07-27T01:00:01.764Z,49
2017-07-27T01:01:03.895Z,49
2017-07-27T01:02:05.692Z,49.1
2017-07-27T01:03:07.494Z,49.1
2017-07-27T01:04:09.623Z,49
2017-07-27T01:05:11.757Z,49
2017-07-27T01:06:13.884Z,49
2017-07-27T01:07:15.325Z,49
2017-07-27T01:08:17.470Z,49.1
2017-07-27T01:09:18.914Z,49
2017-07-27T01:10:20.381Z,49
2017-07-27T01:11:22.510Z,49
2017-07-27T01:12:23.976Z,49.2
2017-07-27T01:13:25.443Z,49.2
2017-07-27T01:14:27.582Z,49.2
2017-07-27T01:15:29.376Z,49
2017-07-27T01:16:31.506Z,49
2017-07-27T01:17:32.970Z,49.2
2017-07-27T01:18:34.784Z,49
2017-07-27T01:19:36.897Z,49.1
2017-07-27T01:20:39.030Z,49
2017-07-27T01:21:40.829Z,49.1
2017-07-27T01:22:42.637Z,49.2
2017-07-27T01:23:44.124Z,49
2017-07-27T01:24:45.591Z,49.1
2017-07-27T01:25:47.095Z,49.6
2017-07-27T01:26:49.226Z,49.1
2017-07-27T01:27:51.027Z,49.1
2017-07-27T01:28:52.827Z,49
2017-07-27T01:29:54.270Z,49.1
2017-07-27T01:30:56.090Z,49
2017-07-27T01:31:57.900Z,49
2017-07-27T01:32:59.697Z,49
2017-07-27T01:34:01.494Z,49.1
2017-07-27T01:35:03.291Z,49.2
2017-07-27T01:36:04.071Z,49.3
2017-07-27T01:37:06.200Z,49.1
2017-07-27T01:38:08.333Z,49.1
2017-07-27T01:39:10.132Z,48.9
2017-07-27T01:40:11.268Z,49
2017-07-27T01:41:13.067Z,49.1
2017-07-27T01:42:15.198Z,49
2017-07-27T01:43:16.972Z,49.1
2017-07-27T01:44:19.101Z,49.2
2017-07-27T01:45:21.233Z,49
2017-07-27T01:46:23.362Z,49.6
2017-07-27T01:47:25.160Z,49.3
2017-07-27T01:48:26.935Z,49.1
2017-07-27T01:49:29.067Z,49.5
2017-07-27T01:50:30.535Z,49.3
2017-07-27T01:51:32.669Z,49
2017-07-27T01:52:33.780Z,49.2
2017-07-27T01:53:35.922Z,49.5
2017-07-27T01:54:38.052Z,49
2017-07-27T01:55:39.847Z,49.1
2017-07-27T01:56:41.638Z,49
2017-07-27T01:57:43.421Z,49.3
2017-07-27T01:58:45.552Z,49.3
2017-07-27T01:59:47.329Z,49.2
2017-07-27T02:00:49.126Z,49
2017-07-27T02:01:50.923Z,49.2
2017-07-27T02:02:53.051Z,49.1
2017-07-27T02:03:54.851Z,49.7
2017-07-27T02:04:56.654Z,49
2017-07-27T02:05:58.449Z,49
2017-07-27T02:07:00.246Z,49.4
2017-07-27T02:08:01.715Z,49
2017-07-27T02:09:03.843Z,49
2017-07-27T02:10:05.975Z,49.7
2017-07-27T02:11:07.438Z,49.2
2017-07-27T02:12:09.572Z,49.6
2017-07-27T02:13:11.386Z,49.2
2017-07-27T02:14:13.516Z,49.4
2017-07-27T02:15:14.960Z,48.8
2017-07-27T02:16:16.760Z,49
2017-07-27T02:17:18.537Z,49.3
2017-07-27T02:18:20.334Z,49.5
2017-07-27T02:19:22.466Z,49.5
2017-07-27T02:20:24.259Z,49.4
2017-07-27T02:21:25.741Z,49.6
2017-07-27T02:22:27.871Z,49.2
2017-07-27T02:23:29.671Z,49.4
2017-07-27T02:24:31.799Z,49.2
2017-07-27T02:25:33.607Z,49.5
2017-07-27T02:26:35.402Z,49.5
2017-07-27T02:27:37.241Z,49.3
2017-07-27T02:28:39.017Z,49.2
2017-07-27T02:29:40.829Z,49.5
2017-07-27T02:30:42.616Z,49.2
2017-07-27T02:31:44.089Z,49.5
2017-07-27T02:32:45.554Z,49
2017-07-27T02:33:47.355Z,49.1
2017-07-27T02:34:48.798Z,49.2
2017-07-27T02:35:50.267Z,49.2
2017-07-27T02:36:52.396Z,49.2
2017-07-27T02:37:54.199Z,49.5
2017-07-27T02:38:55.995Z,48.9
2017-07-27T02:39:57.794Z,49.5
2017-07-27T02:40:58.913Z,49.1
2017-07-27T02:42:00.696Z,49.4
2017-07-27T02:43:02.508Z,49.2
2017-07-27T02:44:03.972Z,49.1
2017-07-27T02:45:06.103Z,49.1
2017-07-27T02:46:08.293Z,49.3
2017-07-27T02:47:10.426Z,49.4
2017-07-27T02:48:12.561Z,49.2
2017-07-27T02:49:13.670Z,49.3
2017-07-27T02:50:15.135Z,49
2017-07-27T02:51:17.278Z,49.4
2017-07-27T02:52:19.056Z,49.1
2017-07-27T02:53:20.523Z,49.1
2017-07-27T02:54:22.305Z,49.2
2017-07-27T02:55:24.427Z,49
2017-07-27T02:56:25.877Z,49.2
2017-07-27T02:57:27.320Z,49.3
2017-07-27T02:58:28.790Z,49.3
2017-07-27T02:59:30.921Z,49.9
2017-07-27T03:00:32.713Z,49.4
2017-07-27T03:01:34.843Z,49.5
2017-07-27T03:02:36.976Z,49.5
2017-07-27T03:03:39.102Z,49.7
2017-07-27T03:04:41.236Z,49.6
2017-07-27T03:05:42.698Z,49.6
2017-07-27T03:06:44.505Z,49
2017-07-27T03:07:46.279Z,49.8
2017-07-27T03:08:48.409Z,49.5
2017-07-27T03:09:50.209Z,49.5
2017-07-27T03:10:51.321Z,49.5
2017-07-27T03:11:52.790Z,49.3
2017-07-27T03:12:54.234Z,49.4
2017-07-27T03:13:56.033Z,49.3
2017-07-27T03:14:58.163Z,49.2
2017-07-27T03:15:59.998Z,49.3
2017-07-27T03:17:01.797Z,49.4
2017-07-27T03:18:03.575Z,49.6
2017-07-27T03:19:05.708Z,49.7
2017-07-27T03:20:07.523Z,49.5
2017-07-27T03:21:09.644Z,49.8
2017-07-27T03:22:11.774Z,49.8
2017-07-27T03:23:13.221Z,49.4
2017-07-27T03:24:14.996Z,49.4
2017-07-27T03:25:17.126Z,49.3
2017-07-27T03:26:18.925Z,49.4
2017-07-27T03:27:20.697Z,49.6
2017-07-27T03:28:22.496Z,49.4
2017-07-27T03:29:24.292Z,49.5
2017-07-27T03:30:25.801Z,50
2017-07-27T03:31:27.599Z,49.8
2017-07-27T03:32:29.043Z,49.5
2017-07-27T03:33:31.181Z,49.4
2017-07-27T03:34:32.628Z,49.7
2017-07-27T03:35:34.757Z,49.8
2017-07-27T03:36:35.893Z,49.5
2017-07-27T03:37:37.689Z,49.8
2017-07-27T03:38:39.821Z,49.5
2017-07-27T03:39:41.600Z,49.5
2017-07-27T03:40:43.399Z,49.5
2017-07-27T03:41:45.586Z,49.5
2017-07-27T03:42:47.035Z,49.4
2017-07-27T03:43:48.834Z,49.5
2017-07-27T03:44:50.629Z,49.7
2017-07-27T03:45:52.428Z,49.8
2017-07-27T03:46:54.561Z,49.6
2017-07-27T03:47:56.358Z,49.7
2017-07-27T03:48:58.491Z,49.7
2017-07-27T03:50:00.270Z,49.8
2017-07-27T03:51:02.072Z,49.9
2017-07-27T03:52:03.515Z,49.7
2017-07-27T03:53:05.309Z,49.6
2017-07-27T03:54:06.768Z,49.8
2017-07-27T03:55:08.563Z,49.9
2017-07-27T03:56:10.698Z,50.2
2017-07-27T03:57:12.471Z,49.8
2017-07-27T03:58:13.601Z,49.7
2017-07-27T03:59:15.735Z,50.3
2017-07-27T04:00:17.205Z,49.8
2017-07-27T04:01:18.646Z,49.9
2017-07-27T04:02:20.457Z,49.8
2017-07-27T04:03:21.899Z,50.2
2017-07-27T04:04:24.029Z,49.8
2017-07-27T04:05:26.158Z,49.7
2017-07-27T04:06:27.975Z,50.2
2017-07-27T04:07:29.749Z,49.7
2017-07-27T04:08:31.546Z,50.1
2017-07-27T04:09:33.019Z,49.8
2017-07-27T04:10:35.146Z,49.9
2017-07-27T04:11:36.947Z,49.8
2017-07-27T04:12:38.721Z,50.1
2017-07-27T04:13:40.516Z,49.9
2017-07-27T04:14:42.314Z,50
2017-07-27T04:15:44.130Z,49.8
2017-07-27T04:16:46.245Z,50.1
2017-07-27T04:17:48.468Z,50.1
2017-07-27T04:18:50.601Z,50.2
2017-07-27T04:19:52.734Z,49.9
2017-07-27T04:20:54.203Z,49.9
2017-07-27T04:21:56.335Z,49.9
2017-07-27T04:22:58.137Z,50.2
2017-07-27T04:23:59.935Z,50.2
2017-07-27T04:25:01.736Z,50.1
2017-07-27T04:26:03.512Z,49.9
2017-07-27T04:27:37.069Z,49.8
2017-07-27T04:28:38.872Z,49.8
2017-07-27T04:29:40.322Z,50.2
2017-07-27T04:30:42.127Z,49.9
2017-07-27T04:31:44.262Z,49.9
2017-07-27T04:32:46.060Z,49.8
2017-07-27T04:33:47.859Z,50.1
2017-07-27T04:34:49.990Z,49.8
2017-07-27T04:35:51.800Z,50
2017-07-27T04:36:52.911Z,49.9
2017-07-27T04:37:54.375Z,50.4
2017-07-27T04:38:56.153Z,49.8
2017-07-27T04:39:57.617Z,50
2017-07-27T04:40:59.062Z,50.4
2017-07-27T04:42:00.505Z,49.7
2017-07-27T04:43:02.304Z,50.3
2017-07-27T04:44:04.434Z,49.9
2017-07-27T04:45:06.242Z,49.9
2017-07-27T04:46:08.137Z,49.8
2017-07-27T04:47:09.935Z,49.9
2017-07-27T04:48:11.731Z,49.8
2017-07-27T04:49:13.865Z,50
2017-07-27T04:50:15.337Z,50.1
2017-07-27T04:51:17.135Z,50
2017-07-27T04:52:18.584Z,50
2017-07-27T04:53:20.379Z,49.8
2017-07-27T04:54:22.515Z,49.8
2017-07-27T04:55:24.316Z,49.7
2017-07-27T04:56:26.446Z,50
2017-07-27T04:57:28.579Z,50.3
2017-07-27T04:58:30.356Z,49.9
2017-07-27T04:59:32.155Z,49.8
2017-07-27T05:00:34.286Z,50.3
2017-07-27T05:01:36.418Z,50.2
2017-07-27T05:02:38.548Z,49.7
2017-07-27T05:03:40.024Z,50.3
2017-07-27T05:04:42.156Z,50.1
2017-07-27T05:05:44.285Z,50.3
2017-07-27T05:06:46.084Z,49.8
2017-07-27T05:07:48.215Z,50.1
2017-07-27T05:08:49.993Z,50.3
2017-07-27T05:09:51.460Z,49.9
2017-07-27T05:10:52.909Z,50.2
2017-07-27T05:11:54.685Z,50.3
2017-07-27T05:12:56.135Z,50.3
2017-07-27T05:13:57.274Z,49.8
2017-07-27T05:14:58.409Z,50.2
2017-07-27T05:16:00.209Z,49.9
2017-07-27T05:17:02.007Z,50.1
2017-07-27T05:18:04.140Z,49.9
2017-07-27T05:19:06.272Z,49.9
2017-07-27T05:20:08.074Z,50.4
2017-07-27T05:21:10.210Z,50.4
2017-07-27T05:22:12.013Z,49.8
2017-07-27T05:23:14.145Z,50.5
2017-07-27T05:24:15.946Z,49.8
2017-07-27T05:25:17.397Z,50.2
2017-07-27T05:26:18.860Z,50.1
2017-07-27T05:27:20.997Z,50.2
2017-07-27T05:28:23.125Z,50.1
2017-07-27T05:29:24.941Z,50
2017-07-27T05:30:26.713Z,49.9
2017-07-27T05:31:28.843Z,50.3
2017-07-27T05:32:30.619Z,49.9
2017-07-27T05:33:32.393Z,50.4
2017-07-27T05:34:34.188Z,50
2017-07-27T05:35:35.988Z,50.3
2017-07-27T05:36:37.433Z,49.9
2017-07-27T05:37:39.233Z,50.2
2017-07-27T05:38:41.034Z,50
2017-07-27T05:39:43.164Z,49.9
2017-07-27T05:40:44.963Z,50.2
2017-07-27T05:41:46.761Z,50.1
2017-07-27T05:42:48.891Z,50.3
2017-07-27T05:43:51.026Z,50.2
2017-07-27T05:44:53.157Z,50
2017-07-27T05:45:54.603Z,50.1
2017-07-27T05:46:56.070Z,50.2
2017-07-27T05:47:57.850Z,50.6
2017-07-27T05:48:59.295Z,50
2017-07-27T05:50:01.427Z,50.4
2017-07-27T05:51:03.226Z,50.1
2017-07-27T05:52:05.363Z,50
2017-07-27T05:53:07.590Z,50
2017-07-27T05:54:09.391Z,50.3
2017-07-27T05:55:10.833Z,50.5
2017-07-27T05:56:12.610Z,50.1
2017-07-27T05:57:14.741Z,50.5
2017-07-27T05:58:15.856Z,50.3
2017-07-27T05:59:17.989Z,49.9
2017-07-27T06:00:19.787Z,50.1
2017-07-27T06:01:21.926Z,50.4
2017-07-27T06:02:23.724Z,49.9
2017-07-27T06:03:25.522Z,49.8
2017-07-27T06:04:27.320Z,50
2017-07-27T06:05:29.451Z,50.4
2017-07-27T06:06:31.592Z,50.2
2017-07-27T06:07:33.371Z,50
2017-07-27T06:08:35.504Z,50.1
2017-07-27T06:09:36.976Z,50
2017-07-27T06:10:38.758Z,50.2
2017-07-27T06:11:40.203Z,50
2017-07-27T06:12:42.001Z,50.1
2017-07-27T06:13:44.132Z,49.7
2017-07-27T06:14:46.264Z,50.1
2017-07-27T06:15:47.706Z,50.3
2017-07-27T06:16:49.841Z,50.3
2017-07-27T06:17:51.285Z,50
2017-07-27T06:18:53.089Z,50
2017-07-27T06:19:54.558Z,49.9
2017-07-27T06:20:56.357Z,50.1
2017-07-27T06:21:58.489Z,49.9
2017-07-27T06:22:59.957Z,50.3
2017-07-27T06:24:02.089Z,50.2
2017-07-27T06:25:03.896Z,49.8
2017-07-27T06:26:05.695Z,49.9
2017-07-27T06:27:07.474Z,49.8
2017-07-27T06:28:08.611Z,50
2017-07-27T06:29:10.470Z,50.1
2017-07-27T06:30:12.251Z,49.9
2017-07-27T06:31:14.389Z,49.9
2017-07-27T06:32:16.191Z,50
2017-07-27T06:33:18.321Z,49.8
2017-07-27T06:34:19.769Z,50
2017-07-27T06:35:21.916Z,49.9
2017-07-27T06:36:24.048Z,49.9
2017-07-27T06:37:26.183Z,50
2017-07-27T06:38:27.296Z,50.2
2017-07-27T06:39:29.102Z,49.8
2017-07-27T06:40:30.902Z,49.8
2017-07-27T06:41:32.370Z,50.2
2017-07-27T06:42:34.502Z,50
2017-07-27T06:43:36.303Z,50
2017-07-27T06:44:38.442Z,49.9
2017-07-27T06:45:40.236Z,49.8
2017-07-27T06:46:42.372Z,49.5
2017-07-27T06:47:43.817Z,49.4
2017-07-27T06:48:45.290Z,49.6
2017-07-27T06:49:47.187Z,49.5
2017-07-27T06:50:48.293Z,49.8
2017-07-27T06:51:50.439Z,49.8
2017-07-27T06:52:52.573Z,50
2017-07-27T06:53:54.375Z,49.4
2017-07-27T06:54:56.507Z,49.4
2017-07-27T06:55:58.311Z,49.1
2017-07-27T06:57:00.445Z,49.2
2017-07-27T06:58:02.248Z,49.3
2017-07-27T06:59:04.385Z,49.4
2017-07-27T07:00:05.501Z,49.8
2017-07-27T07:01:07.635Z,49.2
2017-07-27T07:02:09.765Z,49.3
2017-07-27T07:03:11.897Z,49.1
2017-07-27T07:04:13.345Z,49.1
2017-07-27T07:05:15.529Z,49.1
2017-07-27T07:06:17.662Z,49.6
2017-07-27T07:07:19.798Z,49.2
2017-07-27T07:08:21.274Z,49.3
2017-07-27T07:09:23.051Z,49.2
2017-07-27T07:10:24.498Z,49.6
2017-07-27T07:11:26.294Z,49.7
2017-07-27T07:12:27.745Z,49.4
2017-07-27T07:13:29.541Z,49.3
2017-07-27T07:14:31.683Z,49.9
2017-07-27T07:15:33.461Z,49.9
2017-07-27T07:16:34.906Z,49.7
2017-07-27T07:17:36.707Z,49.9
2017-07-27T07:18:38.154Z,49.5
2017-07-27T07:19:39.602Z,49.5
2017-07-27T07:20:41.735Z,49.8
2017-07-27T07:21:43.541Z,49.1
2017-07-27T07:22:45.672Z,49.8
2017-07-27T07:23:47.474Z,49.9
2017-07-27T07:24:48.945Z,49.8
2017-07-27T07:25:50.083Z,50.1
2017-07-27T07:26:52.216Z,50
2017-07-27T07:27:53.991Z,49.8
2017-07-27T07:28:56.124Z,49.8
2017-07-27T07:29:58.251Z,49.9
2017-07-27T07:31:00.054Z,49.9
2017-07-27T07:32:02.192Z,50.1
2017-07-27T07:33:04.322Z,49.8
2017-07-27T07:34:06.121Z,49.8
2017-07-27T07:35:08.260Z,50
2017-07-27T07:36:10.059Z,50
2017-07-27T07:37:11.856Z,49.8
2017-07-27T07:38:13.989Z,50.1
2017-07-27T07:39:15.109Z,49.9
2017-07-27T07:40:17.243Z,49.9
2017-07-27T07:41:19.041Z,50.2
2017-07-27T07:42:20.824Z,50.4
2017-07-27T07:43:22.957Z,50.1
2017-07-27T07:44:24.757Z,49.8
2017-07-27T07:45:26.224Z,50
2017-07-27T07:46:27.673Z,50.1
2017-07-27T07:47:28.787Z,50
2017-07-27T07:48:30.587Z,50
2017-07-27T07:49:32.033Z,50.2
2017-07-27T07:50:33.835Z,49.6
2017-07-27T07:51:35.966Z,49.5
2017-07-27T07:52:38.098Z,49.7
2017-07-27T07:53:39.881Z,50
2017-07-27T07:54:42.013Z,49.1
2017-07-27T07:55:43.484Z,49.7
2017-07-27T07:56:45.281Z,50.1
2017-07-27T07:57:47.414Z,49.5
2017-07-27T07:58:48.880Z,49.4
2017-07-27T07:59:51.017Z,49.5
2017-07-27T08:00:52.457Z,49.8
2017-07-27T08:01:53.932Z,49.5
2017-07-27T08:02:56.071Z,49.5
2017-07-27T08:03:57.541Z,49.7
2017-07-27T08:04:59.677Z,49.6
2017-07-27T08:06:01.131Z,49.8
2017-07-27T08:07:03.266Z,49.9
2017-07-27T08:08:05.404Z,49.8
2017-07-27T08:09:07.211Z,49.3
2017-07-27T08:10:08.349Z,49.7
2017-07-27T08:11:10.480Z,49.8
2017-07-27T08:12:12.281Z,49.1
2017-07-27T08:13:14.414Z,49.4
2017-07-27T08:14:16.547Z,49.5
2017-07-27T08:15:18.347Z,49.7
2017-07-27T08:16:20.127Z,49.1
2017-07-27T08:17:21.929Z,49.9
2017-07-27T08:18:24.063Z,49.5
2017-07-27T08:19:25.844Z,49.2
2017-07-27T08:20:27.310Z,49.6
2017-07-27T08:21:29.442Z,49.9
2017-07-27T08:22:30.909Z,49.8
2017-07-27T08:23:32.711Z,49.5
2017-07-27T08:24:34.847Z,49.4
2017-07-27T08:25:36.977Z,49.5
2017-07-27T08:26:38.776Z,49.8
2017-07-27T08:27:40.978Z,49.7
2017-07-27T08:28:43.119Z,49.9
2017-07-27T08:29:45.260Z,49.7
2017-07-27T08:30:47.055Z,49.4
2017-07-27T08:31:49.190Z,49.7
2017-07-27T08:32:50.976Z,49.7
2017-07-27T08:33:53.111Z,49.7
2017-07-27T08:34:54.915Z,49.8
2017-07-27T08:35:57.044Z,49.7
2017-07-27T08:36:59.179Z,49.7
2017-07-27T08:38:00.953Z,49.5
2017-07-27T08:39:02.754Z,50.2
2017-07-27T08:40:04.562Z,49.6
2017-07-27T08:41:06.033Z,50
2017-07-27T08:42:08.169Z,49.9
2017-07-27T08:43:09.966Z,49.9
2017-07-27T08:44:11.769Z,50
2017-07-27T08:45:13.549Z,49.8
2017-07-27T08:46:14.665Z,50.5
2017-07-27T08:47:16.109Z,50.3
2017-07-27T08:48:17.626Z,49.9
2017-07-27T08:49:19.757Z,50.4
2017-07-27T08:50:21.560Z,50.4
2017-07-27T08:51:23.696Z,50
2017-07-27T08:52:25.500Z,49.9
2017-07-27T08:53:27.734Z,50.1
2017-07-27T08:54:29.871Z,50.5
2017-07-27T08:55:31.669Z,50.5
2017-07-27T08:56:33.114Z,50
2017-07-27T08:57:34.585Z,49.8
2017-07-27T08:58:36.719Z,50.1
2017-07-27T08:59:38.521Z,49.8
2017-07-27T09:00:40.326Z,49.5
2017-07-27T09:01:42.470Z,50.2
2017-07-27T09:02:43.919Z,50.4
2017-07-27T09:03:45.368Z,50.3
2017-07-27T09:04:46.836Z,50
2017-07-27T09:05:48.970Z,50.1
2017-07-27T09:06:50.767Z,50.1
2017-07-27T09:07:52.567Z,50.2
2017-07-27T09:08:54.419Z,50.2
2017-07-27T09:09:56.554Z,49.8
2017-07-27T09:10:58.686Z,49.8
2017-07-27T09:12:00.485Z,49.5
2017-07-27T09:13:01.962Z,50.1
2017-07-27T09:14:03.766Z,49.8
2017-07-27T09:15:05.908Z,50.1
2017-07-27T09:16:07.686Z,49.9
2017-07-27T09:17:08.798Z,49.8
2017-07-27T09:18:10.245Z,50.3
2017-07-27T09:19:12.050Z,50.1
2017-07-27T09:20:13.829Z,50.3
2017-07-27T09:21:15.967Z,49.9
2017-07-27T09:22:18.106Z,49.9
2017-07-27T09:23:20.240Z,49.4
2017-07-27T09:24:22.376Z,49.5
2017-07-27T09:25:23.491Z,49.4
2017-07-27T09:26:25.290Z,50
2017-07-27T09:27:26.417Z,49.7
2017-07-27T09:28:27.529Z,49.7
2017-07-27T09:29:29.328Z,49.6
2017-07-27T09:30:31.130Z,49.7
2017-07-27T09:31:33.267Z,49.8
2017-07-27T09:32:34.720Z,49.5
2017-07-27T09:33:36.520Z,49.7
2017-07-27T09:34:38.653Z,49.4
2017-07-27T09:35:40.101Z,50.1
2017-07-27T09:36:42.240Z,49.5
2017-07-27T09:37:44.371Z,49.8
2017-07-27T09:38:46.502Z,49.7
2017-07-27T09:39:48.637Z,49.6
2017-07-27T09:40:50.417Z,50
2017-07-27T09:41:51.861Z,49.8
2017-07-27T09:42:53.993Z,49.6
2017-07-27T09:43:55.768Z,49.6
2017-07-27T09:44:57.903Z,49.5
2017-07-27T09:45:59.354Z,49.8
2017-07-27T09:47:01.484Z,49.9
2017-07-27T09:48:03.618Z,49.6
2017-07-27T09:49:05.068Z,49.4
2017-07-27T09:50:06.875Z,49.4
2017-07-27T09:51:08.316Z,49.9
2017-07-27T09:52:10.451Z,49.4
2017-07-27T09:53:12.586Z,49.9
2017-07-27T09:54:14.719Z,49.6
2017-07-27T09:55:16.522Z,49.5
2017-07-27T09:56:17.975Z,49.9
2017-07-27T09:57:19.096Z,49.9
2017-07-27T09:58:21.227Z,50.1
2017-07-27T09:59:23.363Z,50.1
2017-07-27T10:00:24.844Z,49.7
2017-07-27T10:01:26.644Z,50.1
2017-07-27T10:02:28.116Z,50.2
2017-07-27T10:03:29.896Z,50.3
2017-07-27T10:04:31.363Z,50.2
2017-07-27T10:05:33.545Z,50
2017-07-27T10:06:35.354Z,49.7
2017-07-27T10:07:36.801Z,49.5
2017-07-27T10:08:38.603Z,50.1
2017-07-27T10:09:40.072Z,50.2
2017-07-27T10:10:42.206Z,49.9
2017-07-27T10:11:43.655Z,50.2
2017-07-27T10:12:45.119Z,50.1
2017-07-27T10:13:46.594Z,50.1
2017-07-27T10:14:48.729Z,50.2
2017-07-27T10:15:50.532Z,50
2017-07-27T10:16:51.979Z,50.2
2017-07-27T10:17:53.425Z,49.9
2017-07-27T10:18:55.235Z,50.1
2017-07-27T10:19:57.369Z,49.9
2017-07-27T10:20:59.169Z,49.9
2017-07-27T10:22:01.301Z,50.2
2017-07-27T10:23:02.442Z,50.2
2017-07-27T10:24:04.574Z,50
2017-07-27T10:25:06.374Z,50.1
2017-07-27T10:26:07.872Z,50.3
2017-07-27T10:27:09.674Z,49.9
2017-07-27T10:28:11.476Z,49.8
2017-07-27T10:29:12.595Z,49.8
2017-07-27T10:30:13.708Z,49.8
2017-07-27T10:31:15.172Z,49.8
2017-07-27T10:32:16.640Z,49.5
2017-07-27T10:33:17.753Z,49.4
2017-07-27T10:34:19.890Z,49.4
2017-07-27T10:35:21.670Z,50
2017-07-27T10:36:23.141Z,49.6
2017-07-27T10:37:25.269Z,50.1
2017-07-27T10:38:27.066Z,49.8
2017-07-27T10:39:28.178Z,49.8
2017-07-27T10:40:29.647Z,50.2
2017-07-27T10:41:31.091Z,49.8
2017-07-27T10:42:32.902Z,49.9
2017-07-27T10:43:34.688Z,49.9
2017-07-27T10:44:36.464Z,50.3
2017-07-27T10:45:38.600Z,50.2
2017-07-27T10:46:40.732Z,49.8
2017-07-27T10:47:41.847Z,49.8
2017-07-27T10:48:43.979Z,49.7
2017-07-27T10:49:46.109Z,49.8
2017-07-27T10:50:47.579Z,49.5
2017-07-27T10:51:49.813Z,50.1
2017-07-27T10:52:51.615Z,49.6
2017-07-27T10:53:53.392Z,50.1
2017-07-27T10:54:55.194Z,50.3
2017-07-27T10:55:57.324Z,50
2017-07-27T10:56:59.136Z,50
2017-07-27T10:58:01.263Z,50
2017-07-27T10:59:03.394Z,49.7
2017-07-27T11:00:05.527Z,49.5
2017-07-27T11:01:06.982Z,49.8
2017-07-27T11:02:08.785Z,49.4
2017-07-27T11:03:10.916Z,49.4
2017-07-27T11:04:12.387Z,49.4
2017-07-27T11:05:14.167Z,49.3
2017-07-27T11:06:16.303Z,49.2
2017-07-27T11:07:18.104Z,49.1
2017-07-27T11:08:19.220Z,49.8
2017-07-27T11:09:21.351Z,49.9
2017-07-27T11:10:23.486Z,49.5
2017-07-27T11:11:25.287Z,49.6
2017-07-27T11:12:27.093Z,49.8
2017-07-27T11:13:28.561Z,49.8
2017-07-27T11:14:30.363Z,50.1
2017-07-27T11:15:32.165Z,49.8
2017-07-27T11:16:33.963Z,50.2
2017-07-27T11:17:35.743Z,49.7
2017-07-27T11:18:37.883Z,49.9
2017-07-27T11:19:40.014Z,49.9
2017-07-27T11:20:41.489Z,50.3
2017-07-27T11:21:43.284Z,50.2
2017-07-27T11:22:45.416Z,50
2017-07-27T11:23:47.553Z,50.1
2017-07-27T11:24:49.684Z,50
2017-07-27T11:25:51.464Z,50.5
2017-07-27T11:26:53.610Z,50.4
2017-07-27T11:27:55.461Z,50.4
2017-07-27T11:28:57.266Z,50
2017-07-27T11:29:59.069Z,50.7
2017-07-27T11:31:00.850Z,50.2
2017-07-27T11:32:02.652Z,50.4
2017-07-27T11:33:04.425Z,50.3
2017-07-27T11:34:06.556Z,50.2
2017-07-27T11:35:08.691Z,50.7
2017-07-27T11:36:10.496Z,50.4
2017-07-27T11:37:12.627Z,50.7
2017-07-27T11:38:13.742Z,50.5
2017-07-27T11:39:15.546Z,50.8
2017-07-27T11:40:17.682Z,50.8
2017-07-27T11:41:19.482Z,50.7
2017-07-27T11:42:21.615Z,50.8
2017-07-27T11:43:23.846Z,50.8
2017-07-27T11:44:25.982Z,50.5
2017-07-27T11:45:28.124Z,50.5
2017-07-27T11:46:30.258Z,50.8
2017-07-27T11:47:31.701Z,50.8
2017-07-27T11:48:33.835Z,50.6
2017-07-27T11:49:35.970Z,50.4
2017-07-27T11:50:37.417Z,50.8
2017-07-27T11:51:38.863Z,50
2017-07-27T11:52:40.998Z,50.2
2017-07-27T11:53:42.801Z,50.2
2017-07-27T11:54:44.934Z,50.2
2017-07-27T11:55:46.711Z,50.5
2017-07-27T11:56:48.844Z,50.7
2017-07-27T11:57:50.314Z,50.7
2017-07-27T11:58:52.163Z,50.5
2017-07-27T11:59:53.633Z,50.5
2017-07-27T12:00:55.767Z,50.5
2017-07-27T12:01:57.569Z,50.6
2017-07-27T12:02:59.699Z,50.7
2017-07-27T12:04:01.834Z,50.6
2017-07-27T12:05:03.648Z,50.7
2017-07-27T12:06:05.781Z,50.5
2017-07-27T12:07:07.221Z,50.3
2017-07-27T12:08:09.003Z,50.6
2017-07-27T12:09:10.474Z,50.5
2017-07-27T12:10:12.275Z,50.4
2017-07-27T12:11:14.054Z,50.5
2017-07-27T12:12:16.187Z,50.7
2017-07-27T12:13:17.986Z,50.3
2017-07-27T12:14:20.237Z,50.4
2017-07-27T12:15:22.381Z,50.4
2017-07-27T12:16:24.157Z,50.6
2017-07-27T12:17:25.604Z,50.4
2017-07-27T12:18:27.734Z,50.7
2017-07-27T12:19:29.537Z,50.8
2017-07-27T12:20:31.005Z,50.6
2017-07-27T12:21:32.786Z,50.6
2017-07-27T12:22:34.612Z,50.6
2017-07-27T12:23:36.736Z,50.3
2017-07-27T12:24:38.542Z,50.4
2017-07-27T12:25:40.683Z,49.9
2017-07-27T12:26:42.151Z,50.4
2017-07-27T12:27:44.282Z,50.5
2017-07-27T12:28:46.417Z,50.4
2017-07-27T12:29:48.552Z,50
2017-07-27T12:30:50.353Z,50.1
2017-07-27T12:31:51.802Z,50
2017-07-27T12:32:53.934Z,50.3
2017-07-27T12:33:56.066Z,50.2
2017-07-27T12:34:57.949Z,49.9
2017-07-27T12:35:59.422Z,50.2
2017-07-27T12:37:01.227Z,50.1
2017-07-27T12:38:03.028Z,50
2017-07-27T12:39:04.825Z,49.9
2017-07-27T12:40:06.628Z,50.1
2017-07-27T12:41:08.761Z,49.8
2017-07-27T12:42:10.560Z,50
2017-07-27T12:43:12.364Z,50.1
2017-07-27T12:44:13.809Z,50.6
2017-07-27T12:45:15.257Z,50
2017-07-27T12:46:17.415Z,50
2017-07-27T12:47:19.546Z,50.1
2017-07-27T12:48:21.325Z,50
2017-07-27T12:49:22.771Z,50.5
2017-07-27T12:50:24.907Z,50.2
2017-07-27T12:51:26.355Z,50
2017-07-27T12:52:28.153Z,50
2017-07-27T12:53:29.268Z,50.1
2017-07-27T12:54:31.402Z,50.1
2017-07-27T12:55:33.202Z,50.1
2017-07-27T12:56:34.672Z,50
2017-07-27T12:57:36.476Z,50.2
2017-07-27T12:58:38.606Z,50
2017-07-27T12:59:40.384Z,50.4
2017-07-27T13:00:42.161Z,50
2017-07-27T13:01:44.297Z,50
2017-07-27T13:02:46.096Z,50.3
2017-07-27T13:03:47.898Z,50.3
2017-07-27T13:04:49.341Z,50
2017-07-27T13:05:51.137Z,50.2
2017-07-27T13:06:52.939Z,50
2017-07-27T13:07:54.051Z,50
2017-07-27T13:08:56.182Z,49.9
2017-07-27T13:09:57.962Z,49.8
2017-07-27T13:10:59.845Z,49.8
2017-07-27T13:12:01.648Z,49.8
2017-07-27T13:13:03.788Z,50
2017-07-27T13:14:05.916Z,49.6
2017-07-27T13:15:07.699Z,50
2017-07-27T13:16:09.837Z,49.4
2017-07-27T13:17:11.289Z,49.8
2017-07-27T13:18:13.421Z,50.1
2017-07-27T13:19:15.202Z,50.1
2017-07-27T13:20:16.652Z,50
2017-07-27T13:21:18.783Z,50.2
2017-07-27T13:22:20.917Z,49.8
2017-07-27T13:23:23.050Z,49.5
2017-07-27T13:24:25.184Z,49.5
2017-07-27T13:25:26.984Z,50.2
2017-07-27T13:26:28.456Z,49.6
2017-07-27T13:27:30.259Z,49.8
2017-07-27T13:28:32.056Z,50.1
2017-07-27T13:29:34.188Z,49.5
2017-07-27T13:30:36.324Z,49.4
2017-07-27T13:31:38.454Z,49.6
2017-07-27T13:32:40.592Z,50.1
2017-07-27T13:33:42.722Z,50
2017-07-27T13:34:44.524Z,49.4
2017-07-27T13:35:46.329Z,49.4
2017-07-27T13:36:48.461Z,49.7
2017-07-27T13:37:50.595Z,49.5
2017-07-27T13:38:52.396Z,49.8
2017-07-27T13:39:54.193Z,49.6
2017-07-27T13:40:55.981Z,49.5
2017-07-27T13:41:57.824Z,49.9
2017-07-27T13:42:59.957Z,49.7
2017-07-27T13:44:01.409Z,49.5
2017-07-27T13:45:03.208Z,49.5
2017-07-27T13:46:05.008Z,49.4
2017-07-27T13:47:06.456Z,49.7
2017-07-27T13:48:07.599Z,49.5
2017-07-27T13:49:09.049Z,49.9
2017-07-27T13:50:11.179Z,49.8
2017-07-27T13:51:12.648Z,49.2
2017-07-27T13:52:14.124Z,49.1